createdAt,value
2023-01-29T00:04:23.409Z,-0.77
2023-01-29T00:09:54.657Z,-0.77
2023-01-29T00:15:25.894Z,-0.74
2023-01-29T00:20:57.349Z,-0.79
2023-01-29T00:26:29.138Z,-0.79
2023-01-29T00:32:00.446Z,-0.77
2023-01-29T00:37:31.972Z,-0.79
2023-01-29T00:43:21.582Z,-0.76
2023-01-29T00:48:52.981Z,-0.78
2023-01-29T00:54:24.221Z,-0.77
2023-01-29T00:59:55.196Z,-0.78
2023-01-29T01:05:27.064Z,-0.78
2023-01-29T01:11:00.664Z,-0.81
2023-01-29T01:16:31.854Z,-0.80
2023-01-29T01:22:05.127Z,-0.85
2023-01-29T01:27:41.033Z,-0.84
2023-01-29T01:33:12.130Z,-0.82
2023-01-29T01:38:46.460Z,-0.83
2023-01-29T01:44:53.636Z,-0.83
2023-01-29T01:50:50.731Z,-0.83
2023-01-29T01:56:27.068Z,-0.83
2023-01-29T02:01:58.710Z,-0.87
2023-01-29T02:07:48.672Z,-0.87
2023-01-29T02:13:19.962Z,-0.90
2023-01-29T02:18:51.692Z,-0.93
2023-01-29T02:24:42.578Z,-0.93
2023-01-29T02:30:26.804Z,-0.95
2023-01-29T02:36:30.444Z,-0.96
2023-01-29T02:42:28.778Z,-0.96
2023-01-29T02:48:02.039Z,-0.94
2023-01-29T02:53:39.401Z,-0.96
2023-01-29T02:59:15.522Z,-1.00
2023-01-29T03:04:51.743Z,-0.99
2023-01-29T03:10:39.408Z,-0.99
2023-01-29T03:16:12.904Z,-0.97
2023-01-29T03:21:55.368Z,-0.95
2023-01-29T03:28:10.799Z,-0.97
2023-01-29T03:33:50.940Z,-0.98
2023-01-29T03:39:25.167Z,-0.98
2023-01-29T03:45:06.453Z,-1.01
2023-01-29T03:50:59.469Z,-1.03
2023-01-29T03:56:49.013Z,-1.02
2023-01-29T04:02:28.065Z,-1.00
2023-01-29T04:08:07.350Z,-1.02
2023-01-29T04:13:39.191Z,-1.05
2023-01-29T04:19:10.763Z,-1.05
2023-01-29T04:24:45.365Z,-1.02
2023-01-29T04:30:25.770Z,-1.04
2023-01-29T04:36:07.255Z,-1.04
2023-01-29T04:41:47.749Z,-1.04
2023-01-29T04:47:43.023Z,-1.01
2023-01-29T04:53:45.609Z,-0.96
2023-01-29T04:59:21.983Z,-0.96
2023-01-29T05:04:54.441Z,-1.01
2023-01-29T05:10:25.756Z,-1.05
2023-01-29T05:16:02.748Z,-1.04
2023-01-29T05:21:34.181Z,-1.05
2023-01-29T05:27:23.819Z,-1.04
2023-01-29T05:32:55.370Z,-1.04
2023-01-29T05:38:26.567Z,-1.09
2023-01-29T05:43:57.896Z,-1.09
2023-01-29T05:49:29.167Z,-1.09
2023-01-29T05:55:00.291Z,-1.10
2023-01-29T06:00:31.319Z,-1.14
2023-01-29T06:06:02.768Z,-1.16
2023-01-29T06:11:34.206Z,-1.17
2023-01-29T06:17:05.772Z,-1.19
2023-01-29T06:22:37.006Z,-1.21
2023-01-29T06:28:08.452Z,-1.21
2023-01-29T06:33:39.940Z,-1.25
2023-01-29T06:39:11.392Z,-1.24
2023-01-29T06:44:42.818Z,-1.24
2023-01-29T06:50:13.927Z,-1.26
2023-01-29T06:55:51.816Z,-1.22
2023-01-29T07:01:35.233Z,-1.22
2023-01-29T07:07:13.431Z,-1.22
2023-01-29T07:12:44.885Z,-1.15
2023-01-29T07:18:16.345Z,-1.11
2023-01-29T07:23:47.564Z,-1.07
2023-01-29T07:29:18.469Z,-1.10
2023-01-29T07:34:49.666Z,-1.15
2023-01-29T07:40:20.786Z,-1.15
2023-01-29T07:45:52.278Z,-1.14
2023-01-29T07:51:23.705Z,-1.13
2023-01-29T07:56:55.579Z,-1.12
2023-01-29T08:02:26.825Z,-1.09
2023-01-29T08:08:06.539Z,-1.10
2023-01-29T08:13:38.593Z,-1.10
2023-01-29T08:19:09.831Z,-1.09
2023-01-29T08:24:53.429Z,-1.09
2023-01-29T08:30:33.810Z,-1.10
2023-01-29T08:36:05.515Z,-1.08
2023-01-29T08:41:36.559Z,-1.06
2023-01-29T08:47:07.496Z,-1.00
2023-01-29T08:52:38.637Z,-1.00
2023-01-29T09:39:47.309Z,-0.96
2023-01-29T09:45:25.148Z,-0.94
2023-01-29T09:50:59.276Z,-0.93
2023-01-29T09:56:30.752Z,-0.90
2023-01-29T10:02:06.438Z,-0.87
2023-01-29T10:08:02.169Z,-0.86
2023-01-29T10:13:48.425Z,-0.83
2023-01-29T10:19:38.092Z,-0.82
2023-01-29T10:25:15.243Z,-0.80
2023-01-29T10:30:52.205Z,-0.78
2023-01-29T10:36:34.245Z,-0.76
2023-01-29T10:42:31.546Z,-0.76
2023-01-29T10:48:30.096Z,-0.75
2023-01-29T11:25:21.674Z,-0.72
2023-01-29T11:30:53.655Z,-0.69
2023-01-29T11:36:45.927Z,-0.67
2023-01-29T11:42:21.776Z,-0.67
2023-01-29T11:47:55.391Z,-0.65
2023-01-29T11:53:45.399Z,-0.66
2023-01-29T11:59:37.398Z,-0.66
2023-01-29T12:05:20.432Z,-0.62
2023-01-29T12:10:51.825Z,-0.59
2023-01-29T12:17:00.111Z,-0.57
2023-01-29T12:22:50.161Z,-0.54
2023-01-29T12:28:39.385Z,-0.52
2023-01-29T12:34:23.526Z,-0.49
2023-01-29T12:39:58.103Z,-0.47
2023-01-29T12:45:29.645Z,-0.47
2023-01-29T12:51:16.101Z,-0.44
2023-01-29T12:56:49.704Z,-0.43
2023-01-29T13:02:37.606Z,-0.44
2023-01-29T13:08:28.007Z,-0.41
2023-01-29T13:14:05.904Z,-0.37
2023-01-29T13:19:41.266Z,-0.35
2023-01-29T13:25:20.365Z,-0.35
2023-01-29T13:31:11.960Z,-0.33
2023-01-29T13:36:48.460Z,-0.32
2023-01-29T13:42:21.019Z,-0.29
2023-01-29T13:47:53.520Z,-0.29
2023-01-29T13:53:27.848Z,-0.31
2023-01-29T13:58:59.752Z,-0.33
2023-01-29T14:04:32.767Z,-0.37
2023-01-29T14:10:17.135Z,-0.37
2023-01-29T14:15:58.046Z,-0.38
2023-01-29T14:21:34.573Z,-0.39
2023-01-29T14:27:06.037Z,-0.39
2023-01-29T14:32:39.847Z,-0.40
2023-01-29T14:38:13.557Z,-0.41
2023-01-29T14:43:44.924Z,-0.42
2023-01-29T14:49:54.630Z,-0.42
2023-01-29T14:55:45.416Z,-0.45
2023-01-29T15:01:23.441Z,-0.48
2023-01-29T15:07:06.600Z,-0.48
2023-01-29T15:12:50.205Z,-0.53
2023-01-29T15:18:29.736Z,-0.54
2023-01-29T15:24:06.252Z,-0.56
2023-01-29T15:29:38.367Z,-0.59
2023-01-29T15:35:29.185Z,-0.62
2023-01-29T15:41:02.740Z,-0.63
2023-01-29T15:46:36.659Z,-0.66
2023-01-29T15:52:19.667Z,-0.69
2023-01-29T15:57:51.340Z,-0.73
2023-01-29T16:03:25.298Z,-0.73
2023-01-29T16:08:56.819Z,-0.74
2023-01-29T16:14:29.006Z,-0.74
2023-01-29T16:20:02.523Z,-0.75
2023-01-29T16:25:35.520Z,-0.75
2023-01-29T16:31:11.416Z,-0.74
2023-01-29T16:36:46.810Z,-0.75
2023-01-29T16:42:20.233Z,-0.77
2023-01-29T16:48:20.935Z,-0.77
2023-01-29T16:54:07.485Z,-0.79
2023-01-29T16:59:39.781Z,-0.77
2023-01-29T17:05:26.828Z,-0.79
2023-01-29T17:10:57.773Z,-0.81
2023-01-29T17:16:30.319Z,-0.90
2023-01-29T17:22:05.682Z,-0.92
2023-01-29T17:27:40.961Z,-0.92
2023-01-29T17:33:22.987Z,-0.98
2023-01-29T17:38:54.154Z,-1.02
2023-01-29T17:44:28.355Z,-1.04
2023-01-29T17:50:00.205Z,-1.10
2023-01-29T17:55:31.649Z,-1.09
2023-01-29T18:01:02.734Z,-1.15
2023-01-29T18:06:33.827Z,-1.11
2023-01-29T18:12:08.989Z,-1.13
2023-01-29T18:17:40.694Z,-1.19
2023-01-29T18:23:12.823Z,-1.23
2023-01-29T18:28:44.158Z,-1.25
2023-01-29T18:34:15.368Z,-1.25
2023-01-29T18:39:46.434Z,-1.25
2023-01-29T18:45:17.741Z,-1.28
2023-01-29T18:50:50.769Z,-1.28
2023-01-29T18:56:21.886Z,-1.29
2023-01-29T19:01:53.225Z,-1.30
2023-01-29T19:07:24.696Z,-1.32
2023-01-29T19:12:56.301Z,-1.36
2023-01-29T19:18:28.740Z,-1.36
2023-01-29T19:23:59.955Z,-1.40
2023-01-29T19:29:30.949Z,-1.43
2023-01-29T19:35:02.418Z,-1.47
2023-01-29T19:40:33.581Z,-1.53
2023-01-29T19:46:04.797Z,-1.57
2023-01-29T19:51:35.858Z,-1.56
2023-01-29T19:57:07.846Z,-1.59
2023-01-29T20:02:39.523Z,-1.68
2023-01-29T20:08:10.737Z,-1.75
2023-01-29T20:13:41.822Z,-1.71
2023-01-29T20:19:13.182Z,-1.70
2023-01-29T20:24:46.468Z,-1.70
2023-01-29T20:30:18.372Z,-1.70
2023-01-29T20:36:01.212Z,-1.71
2023-01-29T20:41:32.189Z,-1.75
2023-01-29T20:47:04.305Z,-1.76
2023-01-29T20:52:36.939Z,-1.77
2023-01-29T20:58:09.595Z,-1.79
2023-01-29T21:03:40.691Z,-1.87
2023-01-29T21:09:11.680Z,-1.96
2023-01-29T21:14:42.652Z,-2.07
2023-01-29T21:20:14.054Z,-2.03
2023-01-29T21:25:45.876Z,-2.08
2023-01-29T21:31:17.842Z,-2.11
2023-01-29T21:36:48.848Z,-2.22
2023-01-29T21:42:38.636Z,-2.24
2023-01-29T21:48:11.584Z,-2.20
2023-01-29T21:53:42.569Z,-2.23
2023-01-29T21:59:13.637Z,-2.29
2023-01-29T22:04:44.677Z,-2.30
2023-01-29T22:10:17.855Z,-2.29
2023-01-29T22:15:49.860Z,-2.28
2023-01-29T22:21:21.039Z,-2.31
2023-01-29T22:26:52.044Z,-2.31
2023-01-29T22:32:23.039Z,-2.38
2023-01-29T22:37:54.295Z,-2.48
2023-01-29T22:43:29.457Z,-2.53
2023-01-29T22:49:00.515Z,-2.55
2023-01-29T22:54:31.563Z,-2.51
2023-01-29T23:00:06.905Z,-2.48
2023-01-29T23:05:38.267Z,-2.56
2023-01-29T23:11:18.773Z,-2.59
2023-01-29T23:16:49.941Z,-2.60
2023-01-29T23:22:21.281Z,-2.62
2023-01-29T23:27:52.513Z,-2.61
2023-01-29T23:33:23.924Z,-2.53
2023-01-29T23:38:54.907Z,-2.51
2023-01-29T23:44:26.015Z,-2.58
2023-01-29T23:49:56.964Z,-2.60
2023-01-29T23:55:28.082Z,-2.58
